Time;durP1;ratioP1;P1;durP2;ratioP2;P2;SDS_P1;SDS_P2;PMS_P1;PMS_P2;Temp;Humidity;BMP_temperature;BMP_pressure;BME280_temperature;BME280_humidity;BME280_pressure;Samples;Min_cycle;Max_cycle;Signal;HPM_P1;HPM_P2
2023/03/03 00:00:05;;;;;;;;;;;;;;;2.42;100.00;93460.63;5022246;28;19925;-51
2023/03/03 00:02:30;;;;;;;;;;;;;;;2.43;100.00;93456.66;5022521;28;20324;-53
2023/03/03 00:04:56;;;;;;;;;;;;;;;2.44;100.00;93454.66;5027787;28;19928;-53
2023/03/03 00:07:22;;;;;;;;;;;;;;;2.27;100.00;93451.97;5019456;28;19913;-51
2023/03/03 00:09:47;;;;;;;;;;;;;;;2.35;100.00;93441.28;5022072;28;19917;-54
2023/03/03 00:12:23;;;;;;;;;;;;;;;2.46;100.00;93442.03;5024267;28;19921;-51
2023/03/03 00:14:48;;;;;;;;;;;;;;;2.51;100.00;93443.28;5026911;28;19921;-53
2023/03/03 00:17:24;;;;;;;;;;;;;;;2.42;100.00;93443.53;5023552;28;20329;-51
2023/03/03 00:19:49;;;;;;;;;;;;;;;2.32;100.00;93431.41;5022030;28;20421;-50
2023/03/03 00:22:27;;;;;;;;;;;;;;;2.45;100.00;93437.81;5021259;28;19978;-52
2023/03/03 00:24:52;;;;;;;;;;;;;;;2.47;100.00;93437.34;5019942;28;19925;-51
2023/03/03 00:27:22;;;;;;;;;;;;;;;2.52;100.00;93433.84;5025870;28;19917;-52
2023/03/03 00:29:50;;;;;;;;;;;;;;;2.55;100.00;93427.41;5021962;28;19922;-51
2023/03/03 00:32:24;;;;;;;;;;;;;;;2.47;100.00;93432.63;5018300;28;19936;-52
2023/03/03 00:34:50;;;;;;;;;;;;;;;2.50;100.00;93431.63;5024000;28;20016;-54
2023/03/03 00:37:18;;;;;;;;;;;;;;;2.53;100.00;93422.47;5020558;28;20472;-53
2023/03/03 00:39:43;;;;;;;;;;;;;;;2.46;100.00;93420.25;5024886;28;19921;-53
2023/03/03 00:42:18;;;;;;;;;;;;;;;2.26;100.00;93413.06;5023609;28;19921;-52
2023/03/03 00:44:46;;;;;;;;;;;;;;;2.24;100.00;93417.53;5020515;28;19921;-51
2023/03/03 00:47:14;;;;;;;;;;;;;;;2.08;100.00;93407.38;5024339;28;19921;-51
2023/03/03 00:49:40;;;;;;;;;;;;;;;2.10;100.00;93410.34;5022747;28;19999;-51
2023/03/03 00:52:31;;;;;;;;;;;;;;;2.30;100.00;93402.66;5019405;28;20036;-52
2023/03/03 00:54:57;;;;;;;;;;;;;;;2.16;100.00;93397.47;5012902;28;20571;-51
2023/03/03 00:57:22;;;;;;;;;;;;;;;2.20;100.00;93397.97;5010781;28;19918;-53
2023/03/03 00:59:47;;;;;;;;;;;;;;;2.20;100.00;93381.63;5013979;28;19921;-51
2023/03/03 01:02:13;;;;;;;;;;;;;;;2.16;100.00;93386.59;5021695;28;20436;-52
2023/03/03 01:04:38;;;;;;;;;;;;;;;2.09;100.00;93392.53;5019414;28;19921;-50
2023/03/03 01:07:03;;;;;;;;;;;;;;;2.07;100.00;93386.81;5021532;28;19921;-50
2023/03/03 01:09:28;;;;;;;;;;;;;;;2.00;100.00;93384.59;5021800;28;20364;-49
2023/03/03 01:11:54;;;;;;;;;;;;;;;2.04;100.00;93388.56;5021439;28;19925;-50
2023/03/03 01:14:19;;;;;;;;;;;;;;;2.07;100.00;93386.81;5017556;28;19940;-50
2023/03/03 01:16:44;;;;;;;;;;;;;;;2.10;100.00;93383.84;5026411;28;19996;-50
2023/03/03 01:19:10;;;;;;;;;;;;;;;2.05;100.00;93372.97;5022481;28;20413;-51
2023/03/03 01:21:35;;;;;;;;;;;;;;;1.96;100.00;93373.97;5020042;28;19913;-50
2023/03/03 01:24:00;;;;;;;;;;;;;;;2.00;100.00;93371.72;5025700;28;20323;-50
2023/03/03 01:26:26;;;;;;;;;;;;;;;2.16;100.00;93386.59;5022636;28;19971;-49
2023/03/03 01:28:51;;;;;;;;;;;;;;;2.14;100.00;93378.16;5018504;28;20313;-50
2023/03/03 01:31:16;;;;;;;;;;;;;;;2.14;100.00;93373.44;5015258;28;20026;-50
2023/03/03 01:33:42;;;;;;;;;;;;;;;2.35;100.00;93370.47;5014873;28;19929;-50
2023/03/03 01:36:08;;;;;;;;;;;;;;;2.36;100.00;93375.41;5021876;28;19925;-53
2023/03/03 01:38:36;;;;;;;;;;;;;;;2.44;100.00;93370.97;5018213;28;19971;-54
2023/03/03 01:41:02;;;;;;;;;;;;;;;2.37;100.00;93368.72;5024520;28;20397;-55
2023/03/03 01:43:27;;;;;;;;;;;;;;;2.45;100.00;93364.25;5021296;28;19921;-54
2023/03/03 01:45:56;;;;;;;;;;;;;;;2.46;100.00;93357.56;5025569;28;20768;-54
2023/03/03 01:48:21;;;;;;;;;;;;;;;2.27;100.00;93359.34;5023524;28;19921;-51
2023/03/03 01:50:46;;;;;;;;;;;;;;;2.16;100.00;93371.00;5019733;28;19924;-50
2023/03/03 01:53:13;;;;;;;;;;;;;;;2.19;100.00;93359.09;5023392;28;19925;-50
2023/03/03 01:55:39;;;;;;;;;;;;;;;2.26;100.00;93360.56;5018156;28;19921;-50
2023/03/03 01:58:25;;;;;;;;;;;;;;;2.32;100.00;93360.56;5017756;28;20011;-51
2023/03/03 02:00:52;;;;;;;;;;;;;;;2.38;100.00;93362.06;5021027;28;19913;-53
2023/03/03 02:03:18;;;;;;;;;;;;;;;2.47;100.00;93352.88;5025134;28;20360;-51
2023/03/03 02:05:43;;;;;;;;;;;;;;;2.44;100.00;93356.59;5024830;28;19924;-50
2023/03/03 02:08:09;;;;;;;;;;;;;;;2.33;100.00;93354.63;5021377;28;19921;-52
2023/03/03 02:10:34;;;;;;;;;;;;;;;2.48;100.00;93349.63;5022504;28;20703;-52
2023/03/03 02:12:59;;;;;;;;;;;;;;;2.47;100.00;93348.16;5019648;28;19921;-51
2023/03/03 02:15:31;;;;;;;;;;;;;;;2.43;100.00;93355.84;5015707;28;19921;-51
2023/03/03 02:17:57;;;;;;;;;;;;;;;2.33;100.00;93354.63;5023683;28;20083;-52
2023/03/03 02:20:28;;;;;;;;;;;;;;;2.45;100.00;93344.47;5019071;28;19913;-51
2023/03/03 02:23:06;;;;;;;;;;;;;;;2.50;100.00;93352.59;5024626;28;20294;-50
2023/03/03 02:25:51;;;;;;;;;;;;;;;2.54;100.00;93346.88;5023222;28;19913;-51
2023/03/03 02:28:17;;;;;;;;;;;;;;;2.48;100.00;93344.19;5014234;28;19941;-52
2023/03/03 02:30:42;;;;;;;;;;;;;;;2.34;100.00;93341.75;5010332;28;20048;-53
2023/03/03 02:33:07;;;;;;;;;;;;;;;2.44;100.00;93351.88;5019696;28;20028;-52
2023/03/03 02:35:34;;;;;;;;;;;;;;;2.43;100.00;93350.38;5024193;28;20480;-52
2023/03/03 02:38:11;;;;;;;;;;;;;;;2.43;100.00;93344.94;5019864;28;19917;-52
2023/03/03 02:40:39;;;;;;;;;;;;;;;2.42;100.00;93340.00;5020756;28;19917;-51
2023/03/03 02:43:04;;;;;;;;;;;;;;;2.44;100.00;93343.72;5021906;28;19917;-51
2023/03/03 02:45:29;;;;;;;;;;;;;;;2.40;100.00;93340.50;5024318;28;20305;-53
2023/03/03 02:47:54;;;;;;;;;;;;;;;2.33;100.00;93341.00;5024097;28;19923;-52
2023/03/03 02:50:20;;;;;;;;;;;;;;;2.38;100.00;93342.97;5020963;28;20365;-50
2023/03/03 02:52:45;;;;;;;;;;;;;;;2.34;100.00;93347.91;5020252;28;19971;-50
2023/03/03 02:55:10;;;;;;;;;;;;;;;2.41;100.00;93347.41;5023215;28;20021;-50
2023/03/03 02:57:36;;;;;;;;;;;;;;;2.30;100.00;93342.72;5021428;28;19975;-49
2023/03/03 03:00:01;;;;;;;;;;;;;;;2.49;100.00;93345.66;5021244;28;19917;-51
2023/03/03 03:02:26;;;;;;;;;;;;;;;2.45;100.00;93342.44;5026676;28;19921;-51
2023/03/03 03:04:51;;;;;;;;;;;;;;;2.52;100.00;93352.09;5026949;28;20449;-50
2023/03/03 03:07:17;;;;;;;;;;;;;;;2.50;100.00;93343.69;5027142;28;19923;-50
2023/03/03 03:09:42;;;;;;;;;;;;;;;2.36;100.00;93345.44;5027379;28;19917;-51
2023/03/03 03:12:07;;;;;;;;;;;;;;;2.41;100.00;93335.78;5024072;28;19976;-52
2023/03/03 03:14:33;;;;;;;;;;;;;;;2.48;100.00;93346.91;5019735;28;19913;-51
2023/03/03 03:16:58;;;;;;;;;;;;;;;2.43;100.00;93344.19;5023266;28;20028;-50
2023/03/03 03:19:23;;;;;;;;;;;;;;;2.42;100.00;93340.75;5025950;28;19917;-50
2023/03/03 03:21:48;;;;;;;;;;;;;;;2.46;100.00;93340.47;5028582;28;19917;-51
2023/03/03 03:24:14;;;;;;;;;;;;;;;2.55;100.00;93335.50;5022078;28;20007;-51
2023/03/03 03:26:39;;;;;;;;;;;;;;;2.42;100.00;93340.00;5026873;28;19921;-52
2023/03/03 03:29:05;;;;;;;;;;;;;;;2.54;100.00;93334.00;5026723;28;19924;-51
2023/03/03 03:31:30;;;;;;;;;;;;;;;2.47;100.00;93333.81;5021970;28;19948;-51
2023/03/03 03:33:55;;;;;;;;;;;;;;;2.38;100.00;93334.81;5026636;28;19917;-49
2023/03/03 03:36:20;;;;;;;;;;;;;;;2.36;100.00;93333.81;5022070;28;19925;-51
2023/03/03 03:38:46;;;;;;;;;;;;;;;2.32;100.00;93333.34;5026393;28;20704;-50
2023/03/03 03:41:12;;;;;;;;;;;;;;;2.45;100.00;93325.38;5023242;28;19924;-52
2023/03/03 03:43:37;;;;;;;;;;;;;;;2.46;100.00;93326.84;5026444;28;19974;-50
2023/03/03 03:46:03;;;;;;;;;;;;;;;2.53;100.00;93324.38;5025488;28;19917;-50
2023/03/03 03:48:28;;;;;;;;;;;;;;;2.58;100.00;93320.88;5024721;28;19921;-49
2023/03/03 03:50:53;;;;;;;;;;;;;;;2.50;100.00;93322.63;5026229;28;19917;-50
2023/03/03 03:53:19;;;;;;;;;;;;;;;2.64;100.00;93321.59;5024023;28;20290;-51
2023/03/03 03:55:44;;;;;;;;;;;;;;;2.47;100.00;93317.44;5024547;28;20375;-50
2023/03/03 03:58:13;;;;;;;;;;;;;;;2.58;100.00;93317.41;5020560;28;19917;-50
2023/03/03 04:00:39;;;;;;;;;;;;;;;2.43;100.00;93319.66;5022762;28;20437;-49
2023/03/03 04:03:04;;;;;;;;;;;;;;;2.39;100.00;93311.75;5021700;28;19925;-49
2023/03/03 04:05:30;;;;;;;;;;;;;;;2.51;100.00;93305.06;5021343;28;19971;-50
2023/03/03 04:07:55;;;;;;;;;;;;;;;2.66;100.00;93305.50;5022748;28;19913;-50
2023/03/03 04:10:20;;;;;;;;;;;;;;;2.62;100.00;93310.44;5020641;28;19921;-50
2023/03/03 04:12:45;;;;;;;;;;;;;;;2.62;100.00;93310.44;5016195;28;19957;-50
2023/03/03 04:15:11;;;;;;;;;;;;;;;2.68;100.00;93311.19;5024808;28;20312;-49
2023/03/03 04:17:37;;;;;;;;;;;;;;;2.64;100.00;93305.22;5019592;28;19933;-49
2023/03/03 04:20:03;;;;;;;;;;;;;;;2.62;100.00;93315.19;5015141;28;19921;-49
2023/03/03 04:22:32;;;;;;;;;;;;;;;2.57;100.00;93313.94;5021697;28;19998;-49
2023/03/03 04:24:57;;;;;;;;;;;;;;;2.60;100.00;93304.03;5023223;28;19924;-50
2023/03/03 04:27:23;;;;;;;;;;;;;;;2.46;100.00;93313.97;5022889;28;20298;-50
2023/03/03 04:29:48;;;;;;;;;;;;;;;2.54;100.00;93314.19;5023562;28;20435;-49
2023/03/03 04:32:13;;;;;;;;;;;;;;;2.54;100.00;93323.13;5019548;28;20382;-49
2023/03/03 04:34:39;;;;;;;;;;;;;;;2.53;100.00;93313.47;5019646;28;20030;-49
2023/03/03 04:37:04;;;;;;;;;;;;;;;2.55;100.00;93312.97;5022406;28;19925;-49
2023/03/03 04:39:29;;;;;;;;;;;;;;;2.61;100.00;93319.88;5022490;28;20531;-49
2023/03/03 04:41:54;;;;;;;;;;;;;;;2.52;100.00;93314.69;5021858;28;19936;-49
2023/03/03 04:44:20;;;;;;;;;;;;;;;2.56;100.00;93309.72;5021728;28;20609;-49
2023/03/03 04:46:45;;;;;;;;;;;;;;;2.54;100.00;93317.66;5020862;28;19917;-50
2023/03/03 04:49:10;;;;;;;;;;;;;;;2.44;100.00;93315.72;5022253;28;20756;-51
2023/03/03 04:51:36;;;;;;;;;;;;;;;2.53;100.00;93307.28;5025226;28;19913;-52
2023/03/03 04:54:01;;;;;;;;;;;;;;;2.55;100.00;93310.22;5018832;28;19921;-52
2023/03/03 04:56:27;;;;;;;;;;;;;;;2.48;100.00;93308.03;5017286;28;19918;-53
2023/03/03 04:58:53;;;;;;;;;;;;;;;2.49;100.00;93312.25;5022492;28;19914;-53
2023/03/03 05:01:18;;;;;;;;;;;;;;;2.48;100.00;93311.50;5021159;28;19950;-53
2023/03/03 05:03:43;;;;;;;;;;;;;;;2.42;100.00;93316.22;5021697;28;20410;-53
2023/03/03 05:06:09;;;;;;;;;;;;;;;2.56;100.00;93315.19;5023130;28;19917;-53
2023/03/03 05:08:34;;;;;;;;;;;;;;;2.54;100.00;93322.38;5022695;28;19990;-50
2023/03/03 05:11:00;;;;;;;;;;;;;;;2.57;100.00;93316.66;5017683;28;19921;-51
2023/03/03 05:13:28;;;;;;;;;;;;;;;2.48;100.00;93322.41;5022394;28;20412;-50
2023/03/03 05:15:54;;;;;;;;;;;;;;;2.39;100.00;93324.63;5022111;28;19924;-51
2023/03/03 05:18:19;;;;;;;;;;;;;;;2.26;100.00;93331.34;5018049;28;19921;-50
2023/03/03 05:20:45;;;;;;;;;;;;;;;2.35;100.00;93330.34;5023854;28;19983;-51
2023/03/03 05:23:10;;;;;;;;;;;;;;;2.34;100.00;93330.84;5020709;28;19921;-51
2023/03/03 05:25:35;;;;;;;;;;;;;;;2.34;100.00;93334.31;5019254;28;19923;-50
2023/03/03 05:28:00;;;;;;;;;;;;;;;2.32;100.00;93325.88;5019411;28;19929;-50
2023/03/03 05:30:26;;;;;;;;;;;;;;;2.27;100.00;93330.09;5022382;28;19913;-53
2023/03/03 05:32:51;;;;;;;;;;;;;;;2.49;100.00;93326.59;5018769;28;20547;-52
2023/03/03 05:35:16;;;;;;;;;;;;;;;2.41;100.00;93331.06;5022051;28;19922;-54
2023/03/03 05:37:46;;;;;;;;;;;;;;;2.58;100.00;93323.59;5021752;28;20351;-53
2023/03/03 05:40:11;;;;;;;;;;;;;;;2.38;100.00;93320.44;5024543;28;19921;-51
2023/03/03 05:42:37;;;;;;;;;;;;;;;2.35;100.00;93324.16;5024512;28;19928;-50
2023/03/03 05:45:02;;;;;;;;;;;;;;;2.40;100.00;93331.56;5021555;28;19918;-50
2023/03/03 05:47:28;;;;;;;;;;;;;;;2.38;100.00;93326.63;5019734;28;19948;-50
2023/03/03 05:49:53;;;;;;;;;;;;;;;2.31;100.00;93329.88;5023399;28;19917;-51
2023/03/03 05:52:19;;;;;;;;;;;;;;;2.41;100.00;93333.03;5022838;28;20393;-50
2023/03/03 05:54:44;;;;;;;;;;;;;;;2.43;100.00;93331.31;5021936;28;19949;-50
2023/03/03 05:57:09;;;;;;;;;;;;;;;2.49;100.00;93337.47;5017484;28;20099;-49
2023/03/03 05:59:36;;;;;;;;;;;;;;;2.39;100.00;93332.81;5016528;28;19929;-50
2023/03/03 06:02:01;;;;;;;;;;;;;;;2.54;100.00;93336.75;5015631;28;20393;-50
2023/03/03 06:04:27;;;;;;;;;;;;;;;2.66;100.00;93330.03;5021722;28;20035;-50
2023/03/03 06:06:52;;;;;;;;;;;;;;;2.63;100.00;93330.28;5017779;28;19949;-51
2023/03/03 06:09:18;;;;;;;;;;;;;;;2.65;100.00;93333.97;5018789;28;19917;-49
2023/03/03 06:11:43;;;;;;;;;;;;;;;2.66;100.00;93338.22;5016724;28;19921;-49
2023/03/03 06:14:08;;;;;;;;;;;;;;;2.61;100.00;93344.41;5019243;28;19917;-51
2023/03/03 06:16:34;;;;;;;;;;;;;;;2.51;100.00;93340.47;5018869;28;20030;-51
2023/03/03 06:19:00;;;;;;;;;;;;;;;2.46;100.00;93337.75;5010914;28;20436;-50
2023/03/03 06:21:25;;;;;;;;;;;;;;;2.48;100.00;93341.47;5022446;28;20020;-50
2023/03/03 06:23:50;;;;;;;;;;;;;;;2.64;100.00;93334.50;5020023;28;20495;-51
2023/03/03 06:26:16;;;;;;;;;;;;;;;2.60;100.00;93334.00;5020249;28;19913;-52
2023/03/03 06:28:41;;;;;;;;;;;;;;;2.76;100.00;93342.13;5022754;28;19917;-52
2023/03/03 06:31:06;;;;;;;;;;;;;;;2.72;100.00;93338.19;5024956;28;20003;-50
2023/03/03 06:33:32;;;;;;;;;;;;;;;2.79;100.00;93338.41;5017379;28;19932;-50
2023/03/03 06:35:57;;;;;;;;;;;;;;;2.90;100.00;93343.78;5023789;28;19968;-51
2023/03/03 06:38:22;;;;;;;;;;;;;;;2.99;100.00;93346.25;5017969;28;19914;-50
2023/03/03 06:40:48;;;;;;;;;;;;;;;2.84;100.00;93345.81;5024288;28;19932;-53
2023/03/03 06:43:13;;;;;;;;;;;;;;;2.86;100.00;93346.03;5025277;28;19925;-52
2023/03/03 06:45:38;;;;;;;;;;;;;;;3.03;100.00;93349.44;5027033;28;20022;-53
2023/03/03 06:48:04;;;;;;;;;;;;;;;3.19;100.00;93347.91;5022911;28;20470;-51
2023/03/03 06:50:29;;;;;;;;;;;;;;;3.06;99.32;93351.19;5024914;28;19931;-50
2023/03/03 06:53:04;;;;;;;;;;;;;;;2.90;99.30;93354.72;5020870;28;19932;-50
2023/03/03 06:55:29;;;;;;;;;;;;;;;2.95;98.46;93356.69;5016984;28;19917;-54
2023/03/03 06:57:56;;;;;;;;;;;;;;;2.80;100.00;93353.50;5025283;28;19921;-52
2023/03/03 07:00:25;;;;;;;;;;;;;;;3.03;99.77;93360.34;5021762;28;20380;-52
2023/03/03 07:03:00;;;;;;;;;;;;;;;3.23;98.27;93366.75;5023178;28;19921;-50
2023/03/03 07:05:27;;;;;;;;;;;;;;;3.18;98.70;93362.78;5025307;28;20559;-53
2023/03/03 07:07:53;;;;;;;;;;;;;;;3.21;99.82;93369.22;5024674;28;19987;-51
2023/03/03 07:10:18;;;;;;;;;;;;;;;3.19;99.90;93367.00;5026052;28;20008;-52
2023/03/03 07:12:44;;;;;;;;;;;;;;;3.31;100.00;93354.78;5018997;28;19922;-52
2023/03/03 07:15:09;;;;;;;;;;;;;;;3.23;100.00;93364.03;5024489;28;19979;-56
2023/03/03 07:17:34;;;;;;;;;;;;;;;3.36;96.40;93356.00;5019798;28;20150;-50
2023/03/03 07:19:59;;;;;;;;;;;;;;;3.37;95.52;93360.97;5023301;28;19921;-52
2023/03/03 07:22:26;;;;;;;;;;;;;;;3.38;96.04;93356.25;5025876;28;19924;-51
2023/03/03 07:24:52;;;;;;;;;;;;;;;3.35;96.15;93351.78;5025200;28;20404;-53
2023/03/03 07:27:24;;;;;;;;;;;;;;;3.15;98.24;93352.13;5024780;28;19917;-53
2023/03/03 07:29:50;;;;;;;;;;;;;;;3.35;98.55;93357.25;5024698;28;19924;-52
2023/03/03 07:32:21;;;;;;;;;;;;;;;3.33;95.87;93351.56;5017059;28;20425;-53
2023/03/03 07:34:47;;;;;;;;;;;;;;;3.33;95.27;93349.56;5018271;28;19936;-52
2023/03/03 07:37:17;;;;;;;;;;;;;;;3.18;98.21;93351.88;5018950;28;19917;-52
2023/03/03 07:39:42;;;;;;;;;;;;;;;3.19;98.17;93353.34;5018017;28;19984;-52
2023/03/03 07:42:18;;;;;;;;;;;;;;;3.19;98.80;93355.34;5026306;28;20221;-54
2023/03/03 07:44:44;;;;;;;;;;;;;;;3.24;97.98;93360.03;5013145;28;20060;-53
2023/03/03 07:47:28;;;;;;;;;;;;;;;3.29;94.65;93351.09;5020807;28;19922;-53
2023/03/03 07:49:54;;;;;;;;;;;;;;;3.13;95.55;93360.06;5017285;28;19917;-53
2023/03/03 07:52:26;;;;;;;;;;;;;;;3.12;97.60;93356.59;5019878;28;19921;-54
2023/03/03 07:54:51;;;;;;;;;;;;;;;3.17;98.91;93355.84;5017153;28;20386;-53
2023/03/03 07:57:21;;;;;;;;;;;;;;;3.18;98.82;93359.31;5016611;28;19917;-54
2023/03/03 07:59:47;;;;;;;;;;;;;;;3.08;98.91;93351.41;5024041;28;19917;-54
2023/03/03 08:02:25;;;;;;;;;;;;;;;3.30;98.58;93353.31;5019672;28;20427;-53
2023/03/03 08:04:51;;;;;;;;;;;;;;;3.44;98.58;93362.41;5022897;28;19921;-51
2023/03/03 08:07:17;;;;;;;;;;;;;;;3.48;98.04;93351.97;5024934;28;19919;-54
2023/03/03 08:09:42;;;;;;;;;;;;;;;3.62;94.63;93353.59;5026926;28;19917;-53
2023/03/03 08:12:14;;;;;;;;;;;;;;;3.33;94.97;93352.31;5020290;28;19936;-52
2023/03/03 08:14:39;;;;;;;;;;;;;;;3.31;95.49;93346.63;5023636;28;19921;-56
2023/03/03 08:17:16;;;;;;;;;;;;;;;3.42;95.51;93341.06;5023752;28;20356;-53
2023/03/03 08:19:41;;;;;;;;;;;;;;;3.56;95.47;93342.72;5025032;28;20067;-51
2023/03/03 08:22:25;;;;;;;;;;;;;;;3.37;96.43;93341.13;5025733;28;19956;-53
2023/03/03 08:24:51;;;;;;;;;;;;;;;3.59;96.49;93347.19;5020311;28;19917;-53
2023/03/03 08:27:16;;;;;;;;;;;;;;;3.70;93.69;93340.91;5021041;28;19928;-55
2023/03/03 08:29:41;;;;;;;;;;;;;;;3.57;94.57;93335.28;5023703;28;19921;-54
2023/03/03 08:32:06;;;;;;;;;;;;;;;3.73;94.39;93326.22;5020026;28;19917;-53
2023/03/03 08:34:32;;;;;;;;;;;;;;;3.70;93.13;93330.72;5022030;28;20012;-54
2023/03/03 08:36:57;;;;;;;;;;;;;;;3.93;94.40;93325.84;5021036;28;19921;-54
2023/03/03 08:39:22;;;;;;;;;;;;;;;4.05;93.10;93331.97;5021867;28;19917;-54
2023/03/03 08:41:48;;;;;;;;;;;;;;;4.22;90.43;93324.34;5020977;28;19925;-53
2023/03/03 08:44:13;;;;;;;;;;;;;;;3.97;91.68;93325.56;5014023;28;19919;-54
2023/03/03 08:46:40;;;;;;;;;;;;;;;4.15;92.40;93322.19;5020673;28;19925;-55
2023/03/03 08:49:05;;;;;;;;;;;;;;;4.27;91.45;93327.03;5020566;28;19925;-55
2023/03/03 08:51:33;;;;;;;;;;;;;;;4.45;91.49;93323.63;5021136;28;19959;-51
2023/03/03 08:53:58;;;;;;;;;;;;;;;4.55;90.29;93319.31;5021469;28;19927;-53
2023/03/03 08:56:23;;;;;;;;;;;;;;;4.56;89.33;93323.53;5021283;28;20031;-53
2023/03/03 08:58:48;;;;;;;;;;;;;;;4.84;88.70;93322.47;5020521;28;19928;-52
2023/03/03 09:01:15;;;;;;;;;;;;;;;5.26;89.75;93319.00;5020189;28;19917;-55
2023/03/03 09:03:41;;;;;;;;;;;;;;;5.75;88.38;93319.53;5021369;28;20000;-53
2023/03/03 09:06:06;;;;;;;;;;;;;;;6.12;81.01;93322.25;5017757;28;20361;-55
2023/03/03 09:08:31;;;;;;;;;;;;;;;6.47;nan;93310.19;5011448;28;19991;-53
2023/03/03 09:10:56;;;;;;;;;;;;;;;6.38;77.96;93307.84;5022282;28;19971;-54
2023/03/03 09:13:22;;;;;;;;;;;;;;;6.31;78.44;93316.69;5022912;28;19925;-54
2023/03/03 09:15:47;;;;;;;;;;;;;;;6.25;79.35;93316.78;5024403;28;19917;-54
2023/03/03 09:18:13;;;;;;;;;;;;;;;6.30;78.63;93312.47;5027388;28;20626;-54
2023/03/03 09:20:45;;;;;;;;;;;;;;;5.82;80.87;93322.44;5016180;28;20360;-54
2023/03/03 09:23:30;;;;;;;;;;;;;;;5.82;81.75;93318.94;5024629;28;19921;-54
2023/03/03 09:25:55;;;;;;;;;;;;;;;5.81;80.83;93318.19;5018949;28;19943;-54
2023/03/03 09:28:25;;;;;;;;;;;;;;;5.67;80.62;93308.47;5014647;28;20681;-55
2023/03/03 09:30:51;;;;;;;;;;;;;;;5.59;82.54;93315.06;5016969;28;20048;-54
2023/03/03 09:33:32;;;;;;;;;;;;;;;5.58;81.08;93308.84;5022029;28;19975;-53
2023/03/03 09:36:20;;;;;;;;;;;;;;;5.00;83.76;93308.59;5018908;28;19928;-51
2023/03/03 09:38:46;;;;;;;;;;;;;;;4.95;84.02;93303.94;5014951;28;19924;-53
2023/03/03 09:41:15;;;;;;;;;;;;;;;5.20;83.79;93305.34;5023234;28;19924;-52
2023/03/03 09:43:50;;;;;;;;;;;;;;;5.36;84.18;93303.66;5024169;28;19928;-52
2023/03/03 09:46:27;;;;;;;;;;;;;;;5.13;85.15;93310.69;5020185;28;19968;-53
2023/03/03 09:49:15;;;;;;;;;;;;;;;5.54;83.19;93307.66;5016022;28;19922;-53
2023/03/03 09:52:07;;;;;;;;;;;;;;;5.38;82.76;93304.63;5017923;28;19928;-52
2023/03/03 09:54:32;;;;;;;;;;;;;;;5.73;79.06;93305.63;5008206;28;19917;-54
2023/03/03 09:56:58;;;;;;;;;;;;;;;5.43;79.82;93308.56;5021731;28;19924;-54
2023/03/03 09:59:26;;;;;;;;;;;;;;;5.36;79.43;93303.66;5013191;28;20382;-52
2023/03/03 10:01:55;;;;;;;;;;;;;;;5.22;81.22;93310.31;5017957;28;19929;-53
2023/03/03 10:04:20;;;;;;;;;;;;;;;5.34;80.14;93303.44;5024239;28;20087;-51
2023/03/03 10:06:52;;;;;;;;;;;;;;;5.36;80.86;93301.69;5017953;28;20008;-53
2023/03/03 10:09:29;;;;;;;;;;;;;;;5.47;79.41;93297.28;5023058;28;19913;-54
2023/03/03 10:12:13;;;;;;;;;;;;;;;5.38;79.53;93301.88;5015571;28;20701;-52
2023/03/03 10:14:58;;;;;;;;;;;;;;;5.67;77.88;93294.03;5010837;28;19921;-54
2023/03/03 10:17:35;;;;;;;;;;;;;;;5.84;77.77;93302.75;5009606;28;20341;-55
2023/03/03 10:20:07;;;;;;;;;;;;;;;5.74;77.93;93296.16;5013561;28;19924;-55
2023/03/03 10:22:40;;;;;;;;;;;;;;;6.27;76.89;93297.06;5015309;28;19921;-55
2023/03/03 10:25:14;;;;;;;;;;;;;;;6.01;77.87;93290.28;5018728;28;20424;-52
2023/03/03 10:27:45;;;;;;;;;;;;;;;6.31;76.96;93294.75;5018539;28;20344;-50
2023/03/03 10:30:14;;;;;;;;;;;;;;;6.96;77.96;93292.03;5021567;28;19921;-52
2023/03/03 10:32:39;;;;;;;;;;;;;;;6.95;75.85;93290.59;5018509;28;19967;-52
2023/03/03 10:35:07;;;;;;;;;;;;;;;7.07;73.22;93291.81;5016643;28;19960;-53
2023/03/03 10:37:47;;;;;;;;;;;;;;;7.53;74.50;93285.63;5011042;28;20137;-51
2023/03/03 10:40:19;;;;;;;;;;;;;;;8.28;71.89;93274.63;5024483;28;20049;-51
2023/03/03 10:43:03;;;;;;;;;;;;;;;8.63;68.34;93269.72;5016062;28;20469;-55
2023/03/03 10:45:37;;;;;;;;;;;;;;;7.92;69.37;93270.25;5014957;28;19922;-54
2023/03/03 10:48:05;;;;;;;;;;;;;;;6.73;75.46;93269.06;5013565;28;19967;-50
2023/03/03 10:50:31;;;;;;;;;;;;;;;7.06;74.89;93265.63;5020324;28;19932;-53
2023/03/03 10:53:11;;;;;;;;;;;;;;;7.70;73.17;93257.00;5018795;28;20360;-50
2023/03/03 10:55:40;;;;;;;;;;;;;;;7.67;74.20;93252.59;5013463;28;19996;-51
2023/03/03 10:58:08;;;;;;;;;;;;;;;7.75;73.62;93258.91;5014336;28;19932;-54
2023/03/03 11:00:34;;;;;;;;;;;;;;;8.07;75.83;93245.63;5012433;28;20436;-51
2023/03/03 11:03:00;;;;;;;;;;;;;;;8.08;73.27;93241.59;5034453;28;19967;-52
2023/03/03 11:05:25;;;;;;;;;;;;;;;7.87;74.64;93241.59;5015727;28;19953;-51
2023/03/03 11:07:57;;;;;;;;;;;;;;;7.83;74.51;93240.47;5015351;28;20328;-51
2023/03/03 11:10:42;;;;;;;;;;;;;;;7.79;73.64;93235.31;5012023;28;19917;-51
2023/03/03 11:13:12;;;;;;;;;;;;;;;7.55;74.63;93236.38;5020562;28;19932;-51
2023/03/03 11:15:46;;;;;;;;;;;;;;;7.94;72.85;93229.22;5022203;28;20448;-49
2023/03/03 11:18:30;;;;;;;;;;;;;;;8.80;69.21;93223.22;5015759;28;19917;-50
2023/03/03 11:21:01;;;;;;;;;;;;;;;8.46;69.57;93230.91;5023715;28;19925;-50
2023/03/03 11:23:26;;;;;;;;;;;;;;;8.50;70.44;93228.56;5023194;28;19916;-51
2023/03/03 11:25:57;;;;;;;;;;;;;;;8.65;70.33;93228.66;5014376;28;19921;-50
2023/03/03 11:28:25;;;;;;;;;;;;;;;8.43;72.48;93218.97;5022349;28;19952;-50
2023/03/03 11:30:59;;;;;;;;;;;;;;;8.66;71.69;93217.13;5025082;28;19947;-51
2023/03/03 11:33:27;;;;;;;;;;;;;;;8.92;67.43;93210.63;5022993;28;19921;-51
2023/03/03 11:36:06;;;;;;;;;;;;;;;8.70;69.14;93214.00;5022472;28;19925;-51
2023/03/03 11:38:35;;;;;;;;;;;;;;;8.95;68.20;93202.03;5024205;28;20008;-48
2023/03/03 11:41:20;;;;;;;;;;;;;;;8.43;69.91;93207.97;5022209;28;19928;-50
2023/03/03 11:43:46;;;;;;;;;;;;;;;8.68;70.98;93192.53;5000794;28;19939;-52
2023/03/03 11:46:12;;;;;;;;;;;;;;;8.23;71.96;93192.22;5013430;28;19967;-50
2023/03/03 11:49:04;;;;;;;;;;;;;;;8.53;70.41;93200.72;5018478;28;19928;-51
2023/03/03 11:51:40;;;;;;;;;;;;;;;8.33;74.03;93185.72;5004100;28;19925;-51
2023/03/03 11:54:10;;;;;;;;;;;;;;;8.57;73.42;93190.09;5020244;28;20043;-51
2023/03/03 11:56:42;;;;;;;;;;;;;;;7.86;74.86;93190.66;5018716;28;20479;-50
2023/03/03 11:59:23;;;;;;;;;;;;;;;7.92;77.13;93187.78;5016439;28;19943;-50
2023/03/03 12:01:53;;;;;;;;;;;;;;;8.13;75.92;93178.22;5017883;28;20308;-49
2023/03/03 12:04:26;;;;;;;;;;;;;;;8.06;74.88;93191.91;5024850;28;20059;-50
2023/03/03 12:06:55;;;;;;;;;;;;;;;7.90;77.63;93195.81;5022450;28;20342;-50
2023/03/03 12:09:20;;;;;;;;;;;;;;;7.68;75.15;93185.38;5021059;28;19925;-49
2023/03/03 12:11:46;;;;;;;;;;;;;;;7.69;74.51;93189.59;5023150;28;19944;-52
2023/03/03 12:14:30;;;;;;;;;;;;;;;7.52;75.99;93196.22;5021516;28;20333;-50
2023/03/03 12:16:57;;;;;;;;;;;;;;;7.56;77.56;93191.13;5018110;28;19963;-51
2023/03/03 12:19:29;;;;;;;;;;;;;;;7.56;79.54;93191.13;5020068;28;19921;-51
2023/03/03 12:22:04;;;;;;;;;;;;;;;7.61;80.96;93190.28;5019167;28;19917;-50
2023/03/03 12:24:33;;;;;;;;;;;;;;;7.53;79.09;93194.97;5016701;28;19917;-52
2023/03/03 12:26:58;;;;;;;;;;;;;;;7.45;81.57;93199.63;5016323;28;20686;-51
2023/03/03 12:29:45;;;;;;;;;;;;;;;7.49;81.37;93196.56;5019085;28;19917;-51
2023/03/03 12:32:14;;;;;;;;;;;;;;;7.45;79.78;93199.63;5019308;28;19913;-51
2023/03/03 12:34:50;;;;;;;;;;;;;;;7.45;80.50;93205.13;5012569;28;19933;-52
2023/03/03 12:37:25;;;;;;;;;;;;;;;7.36;81.47;93202.81;5021173;28;20024;-50
2023/03/03 12:39:53;;;;;;;;;;;;;;;7.26;80.66;93196.31;5018858;28;20581;-50
2023/03/03 12:42:38;;;;;;;;;;;;;;;7.27;82.42;93195.06;5019568;28;20905;-52
2023/03/03 12:45:04;;;;;;;;;;;;;;;7.26;81.43;93199.06;5007836;28;19922;-52
2023/03/03 12:47:35;;;;;;;;;;;;;;;7.19;81.26;93204.50;5022917;28;19932;-51
2023/03/03 12:50:10;;;;;;;;;;;;;;;7.14;83.23;93203.34;5014713;28;19949;-51
2023/03/03 12:52:51;;;;;;;;;;;;;;;7.15;81.68;93204.06;5013763;28;20020;-51
2023/03/03 12:55:23;;;;;;;;;;;;;;;7.10;84.78;93202.94;5022591;28;19927;-50